createdAt,value
2018-05-07T03:01:06.421Z,0.00
2018-05-07T03:03:06.683Z,0.00
2018-05-07T03:04:07.643Z,0.00
2018-05-07T03:05:07.336Z,0.00
2018-05-07T03:06:07.259Z,0.00
2018-05-07T03:07:07.523Z,0.00
2018-05-07T03:08:07.701Z,0.00
2018-05-07T03:09:08.011Z,0.00
2018-05-07T03:10:08.439Z,0.00
2018-05-07T03:11:08.619Z,0.00
2018-05-07T03:12:08.333Z,0.00
2018-05-07T03:13:09.100Z,0.00
2018-05-07T03:14:06.738Z,0.00
2018-05-07T03:15:06.495Z,0.00
2018-05-07T03:16:06.716Z,0.00
2018-05-07T03:17:06.921Z,0.00
2018-05-07T03:18:07.050Z,0.00
2018-05-07T03:19:07.090Z,0.00
2018-05-07T03:20:07.338Z,0.00
2018-05-07T03:21:07.400Z,0.00
2018-05-07T03:22:07.827Z,0.00
2018-05-07T03:23:08.354Z,0.00
2018-05-07T03:24:18.618Z,0.00
2018-05-07T03:25:10.518Z,0.00
2018-05-07T03:26:11.347Z,0.00
2018-05-07T03:44:06.105Z,11.25
2018-05-07T03:47:06.934Z,16.88
2018-05-07T03:48:07.338Z,16.88
2018-05-07T03:49:06.986Z,16.88
2018-05-07T03:50:07.357Z,16.88
2018-05-07T03:51:08.100Z,22.50
2018-05-07T03:52:08.393Z,22.50
2018-05-07T03:53:15.717Z,22.50
2018-05-07T04:00:42.809Z,33.75
2018-05-07T04:05:26.202Z,45.00
2018-05-07T04:06:16.591Z,45.00
2018-05-07T04:09:15.482Z,50.63
2018-05-07T04:10:16.622Z,56.25
2018-05-07T04:15:22.692Z,61.88
2018-05-07T04:16:06.970Z,67.50
2018-05-07T04:17:05.301Z,67.50
2018-05-07T04:18:05.210Z,67.50
2018-05-07T04:19:05.691Z,67.50
2018-05-07T04:20:06.635Z,73.13
2018-05-07T04:21:06.420Z,73.13
2018-05-07T04:22:07.419Z,73.13
2018-05-07T04:23:08.388Z,78.75
2018-05-07T04:26:30.624Z,84.38
2018-05-07T04:27:24.517Z,84.38
2018-05-07T04:28:21.556Z,84.38
2018-05-07T04:29:21.588Z,90.00
2018-05-07T04:30:22.513Z,90.00
2018-05-07T04:31:22.385Z,90.00
2018-05-07T04:32:21.937Z,90.00
2018-05-07T04:33:23.586Z,95.63
2018-05-07T04:34:24.052Z,95.63
2018-05-07T04:35:25.638Z,95.63
2018-05-07T04:36:23.183Z,95.63
2018-05-07T04:37:23.113Z,101.25
2018-05-07T04:38:23.522Z,101.25
2018-05-07T04:39:22.565Z,101.25
2018-05-07T04:40:21.622Z,101.25
2018-05-07T04:41:23.109Z,106.88
2018-05-07T04:42:22.138Z,106.88
2018-05-07T04:43:21.915Z,106.88
2018-05-07T04:44:22.329Z,106.88
2018-05-07T04:45:22.339Z,112.50
2018-05-07T04:46:23.490Z,112.50
2018-05-07T04:47:22.820Z,112.50
2018-05-07T04:48:23.596Z,112.50
2018-05-07T04:49:23.736Z,112.50
2018-05-07T04:50:23.480Z,118.13
2018-05-07T04:51:23.340Z,118.13
2018-05-07T04:52:23.808Z,118.13
2018-05-07T04:53:23.589Z,118.13
2018-05-07T04:54:24.744Z,118.13
2018-05-07T04:55:24.369Z,123.75
2018-05-07T04:56:24.507Z,123.75
2018-05-07T04:57:24.343Z,123.75
2018-05-07T04:58:24.613Z,123.75
2018-05-07T04:59:25.634Z,123.75
2018-05-07T05:00:25.270Z,129.38
2018-05-07T05:01:25.230Z,129.38
2018-05-07T05:02:26.059Z,129.38
2018-05-07T05:05:07.796Z,135.00
2018-05-07T05:06:06.876Z,135.00
2018-05-07T05:07:08.807Z,135.00
2018-05-07T05:08:10.681Z,135.00
2018-05-07T05:09:07.075Z,135.00
2018-05-07T05:10:06.715Z,135.00
2018-05-07T05:11:06.855Z,140.63
2018-05-07T05:12:07.044Z,140.63
2018-05-07T05:13:07.161Z,140.63
2018-05-07T05:14:07.321Z,146.25
2018-05-07T05:15:07.474Z,146.25
2018-05-07T05:16:07.632Z,151.88
2018-05-07T05:17:07.754Z,157.50
2018-05-07T05:18:17.882Z,157.50
2018-05-07T05:19:10.241Z,157.50
2018-05-07T05:20:19.305Z,157.50
2018-05-07T05:22:11.095Z,168.75
2018-05-07T05:23:10.899Z,174.38
2018-05-07T05:24:12.408Z,180.00
2018-05-07T05:25:11.300Z,185.63
2018-05-07T05:26:09.180Z,185.63
2018-05-07T05:27:14.187Z,191.25
2018-05-07T05:28:09.491Z,196.88
2018-05-07T05:29:09.629Z,196.88
2018-05-07T05:30:09.917Z,202.50
2018-05-07T05:31:09.887Z,208.13
2018-05-07T05:32:10.317Z,208.13
2018-05-07T05:33:10.786Z,208.13
2018-05-07T05:34:10.281Z,213.75
2018-05-07T05:35:10.449Z,213.75
2018-05-07T05:36:10.638Z,213.75
2018-05-07T05:40:33.527Z,219.38
2018-05-07T05:43:31.173Z,225.00
2018-05-07T05:44:31.470Z,230.63
2018-05-07T05:45:31.930Z,230.63
2018-05-07T05:46:42.409Z,230.63
2018-05-07T05:47:42.530Z,236.25
2018-05-07T05:48:35.974Z,236.25
2018-05-07T05:49:36.461Z,236.25
2018-05-07T05:50:34.539Z,241.88
2018-05-07T05:51:35.457Z,241.88
2018-05-07T05:52:33.372Z,241.88
2018-05-07T05:53:32.837Z,247.50
2018-05-07T05:54:32.960Z,247.50
2018-05-07T06:00:18.317Z,253.13
2018-05-07T06:01:31.486Z,253.13
2018-05-07T06:02:29.952Z,258.75
2018-05-07T06:15:07.273Z,281.25
2018-05-07T06:16:07.815Z,281.25
2018-05-07T06:17:08.241Z,281.25
2018-05-07T06:18:19.997Z,281.25
2018-05-07T06:19:18.683Z,286.88
2018-05-07T06:20:19.305Z,286.88
2018-05-07T06:21:19.022Z,286.88
2018-05-07T06:22:25.040Z,286.88
2018-05-07T06:27:12.054Z,292.50
2018-05-07T06:28:12.723Z,292.50
2018-05-07T06:29:12.684Z,292.50
2018-05-07T06:30:12.619Z,298.13
2018-05-07T06:31:14.046Z,298.13
2018-05-07T06:32:14.682Z,298.13
2018-05-07T06:35:02.540Z,303.75
2018-05-07T06:35:53.803Z,303.75
2018-05-07T06:36:54.443Z,303.75
2018-05-07T06:37:58.236Z,309.38
2018-05-07T06:38:52.704Z,309.38
2018-05-07T06:43:05.713Z,320.63
2018-05-07T06:50:17.073Z,326.25
2018-05-07T06:51:17.226Z,326.25
2018-05-07T06:52:17.037Z,326.25
2018-05-07T06:57:15.784Z,337.50
2018-05-07T06:58:17.211Z,331.88
2018-05-07T06:59:16.060Z,337.50
2018-05-07T07:00:16.203Z,337.50
2018-05-07T07:01:16.340Z,337.50
2018-05-07T07:02:16.647Z,337.50
2018-05-07T07:03:16.806Z,343.13
2018-05-07T07:04:16.915Z,343.13
2018-05-07T07:05:17.662Z,343.13
2018-05-07T07:06:17.290Z,343.13
2018-05-07T07:07:21.026Z,343.13
2018-05-07T07:08:19.601Z,343.13
2018-05-07T07:09:22.163Z,343.13
2018-05-07T07:10:24.573Z,348.75
2018-05-07T07:11:21.264Z,343.13
2018-05-07T07:12:20.067Z,348.75
2018-05-07T07:13:18.452Z,348.75
2018-05-07T07:14:18.581Z,348.75
2018-05-07T07:15:19.912Z,348.75
2018-05-07T07:16:20.400Z,348.75
2018-05-07T07:17:20.865Z,354.38
2018-05-07T07:18:20.384Z,354.38
2018-05-07T07:19:19.501Z,354.38
2018-05-07T07:20:20.761Z,354.38
2018-05-07T07:21:20.793Z,360.00
2018-05-07T07:22:20.874Z,354.38
2018-05-07T07:23:20.428Z,360.00
2018-05-07T07:24:20.687Z,360.00
2018-05-07T07:25:21.348Z,365.63
2018-05-07T07:26:21.622Z,365.63
2018-05-07T07:27:20.895Z,365.63
2018-05-07T07:28:21.097Z,365.63
2018-05-07T07:29:22.539Z,365.63
2018-05-07T07:30:27.693Z,371.25
2018-05-07T07:31:21.580Z,371.25
2018-05-07T07:32:21.855Z,371.25
2018-05-07T07:33:21.915Z,371.25
2018-05-07T07:34:21.989Z,376.88
2018-05-07T07:35:22.278Z,376.88
2018-05-07T07:36:22.571Z,376.88
2018-05-07T07:37:22.669Z,376.88
2018-05-07T07:38:22.783Z,376.88
2018-05-07T07:39:23.023Z,382.50
2018-05-07T07:40:23.211Z,382.50
2018-05-07T07:41:23.312Z,382.50
2018-05-07T07:42:23.452Z,382.50
2018-05-07T07:43:23.727Z,382.50
2018-05-07T07:44:23.848Z,382.50
2018-05-07T07:45:26.001Z,382.50
2018-05-07T07:46:35.477Z,388.13
2018-05-07T07:47:28.929Z,388.13
2018-05-07T07:48:36.461Z,393.75
2018-05-07T07:49:27.106Z,393.75
2018-05-07T07:50:26.950Z,393.75
2018-05-07T07:52:38.282Z,399.38
2018-05-07T07:55:08.993Z,410.63
2018-05-07T07:56:11.203Z,410.63
2018-05-07T07:57:11.533Z,416.25
2018-05-07T07:58:11.637Z,416.25
2018-05-07T07:59:10.654Z,421.88
2018-05-07T08:00:09.731Z,450.00
2018-05-07T08:01:09.906Z,478.13
2018-05-07T08:02:10.027Z,483.75
2018-05-07T08:03:10.236Z,495.00
2018-05-07T08:04:10.408Z,500.63
2018-05-07T08:05:10.566Z,517.50
2018-05-07T08:06:10.767Z,534.38
2018-05-07T08:07:10.888Z,540.00
2018-05-07T08:08:11.088Z,556.88
2018-05-07T08:09:11.209Z,568.13
2018-05-07T08:10:11.420Z,585.00
2018-05-07T08:11:11.583Z,601.88
2018-05-07T08:12:11.787Z,613.13
2018-05-07T08:13:11.897Z,630.00
2018-05-07T08:14:12.037Z,641.25
2018-05-07T08:15:12.178Z,646.88
2018-05-07T08:16:12.317Z,663.75
2018-05-07T08:17:12.526Z,675.00
2018-05-07T08:18:12.693Z,691.88
2018-05-07T08:19:12.857Z,691.88
2018-05-07T08:20:13.027Z,691.88
2018-05-07T08:21:13.205Z,691.88
2018-05-07T08:22:13.388Z,703.13
2018-05-07T08:23:13.540Z,714.38
2018-05-07T08:24:13.671Z,714.38
2018-05-07T08:25:13.847Z,720.00
2018-05-07T08:26:14.022Z,731.25
2018-05-07T08:27:14.162Z,753.75
2018-05-07T08:28:14.350Z,776.25
2018-05-07T08:29:14.518Z,787.50
2018-05-07T08:30:14.616Z,793.13
2018-05-07T08:31:14.930Z,804.38
2018-05-07T08:32:15.050Z,821.25
2018-05-07T08:33:15.199Z,838.13
2018-05-07T08:34:15.384Z,843.75
2018-05-07T08:35:15.630Z,860.63
2018-05-07T08:36:15.718Z,877.50
2018-05-07T08:37:15.830Z,883.13
2018-05-07T08:38:16.057Z,916.88
2018-05-07T08:39:16.240Z,933.75
2018-05-07T08:40:16.391Z,967.50
2018-05-07T08:41:16.575Z,945.00
2018-05-07T08:42:16.670Z,697.50
2018-05-07T08:43:16.973Z,478.13
2018-05-07T08:44:17.063Z,461.25
2018-05-07T08:45:17.233Z,455.63
2018-05-07T08:46:17.383Z,455.63
2018-05-07T08:47:17.524Z,455.63
2018-05-07T08:48:17.731Z,455.63
2018-05-07T08:49:17.826Z,455.63
2018-05-07T08:50:18.091Z,455.63
2018-05-07T08:51:18.221Z,466.88
2018-05-07T08:52:18.383Z,461.25
2018-05-07T08:53:18.670Z,461.25
2018-05-07T08:54:18.734Z,461.25
2018-05-07T08:55:18.888Z,466.88
2018-05-07T08:56:18.997Z,461.25
2018-05-07T08:57:19.297Z,472.50
2018-05-07T08:58:19.378Z,466.88
2018-05-07T08:59:19.665Z,466.88
2018-05-07T09:00:19.736Z,472.50
2018-05-07T09:01:20.013Z,472.50
2018-05-07T09:02:20.071Z,472.50
2018-05-07T09:03:20.231Z,472.50
2018-05-07T09:04:20.421Z,472.50
2018-05-07T09:05:20.617Z,472.50
2018-05-07T09:06:20.775Z,478.13
2018-05-07T09:07:20.928Z,478.13
2018-05-07T09:08:21.147Z,483.75
2018-05-07T09:09:21.267Z,483.75
2018-05-07T09:10:21.463Z,489.38
2018-05-07T09:11:21.601Z,483.75
2018-05-07T09:12:21.775Z,483.75
2018-05-07T09:13:21.979Z,489.38
2018-05-07T09:14:22.095Z,489.38
2018-05-07T09:15:22.352Z,489.38
2018-05-07T09:16:22.500Z,495.00
2018-05-07T09:17:22.651Z,495.00
2018-05-07T09:18:22.784Z,506.25
2018-05-07T09:19:22.959Z,618.75
2018-05-07T09:20:23.084Z,1046.25
2018-05-07T09:21:23.266Z,1541.25
2018-05-07T09:22:23.478Z,1935.00
2018-05-07T09:23:23.583Z,2019.38
2018-05-07T09:24:23.815Z,2070.00
2018-05-07T09:25:23.914Z,2092.50
2018-05-07T09:26:24.130Z,2120.63
2018-05-07T09:27:24.231Z,2154.38
2018-05-07T09:28:24.436Z,2165.63
2018-05-07T09:29:24.565Z,2154.38
2018-05-07T09:30:24.844Z,2137.50
2018-05-07T09:31:25.035Z,2109.38
2018-05-07T09:32:25.101Z,2070.00
2018-05-07T09:33:25.218Z,2019.38
2018-05-07T09:34:25.451Z,1968.75
2018-05-07T09:35:25.568Z,1935.00
2018-05-07T09:36:25.835Z,1912.50
2018-05-07T09:37:25.887Z,1935.00
2018-05-07T09:38:26.101Z,1974.38
2018-05-07T09:39:26.269Z,2019.38
2018-05-07T09:40:26.400Z,2075.63
2018-05-07T09:41:26.538Z,2148.75
2018-05-07T09:42:26.875Z,2210.63
2018-05-07T09:43:27.026Z,2278.13
2018-05-07T09:44:27.136Z,2328.75
2018-05-07T09:45:27.458Z,2379.38
2018-05-07T09:46:27.580Z,2430.00
2018-05-07T09:47:27.756Z,2469.38
2018-05-07T09:48:27.939Z,2508.75
2018-05-07T09:49:28.086Z,2576.25
2018-05-07T09:50:28.345Z,2610.00
2018-05-07T09:51:28.412Z,2643.75
2018-05-07T09:52:28.615Z,2688.75
2018-05-07T09:53:28.819Z,2705.63
2018-05-07T09:54:28.928Z,2750.63
2018-05-07T09:55:29.178Z,2778.75
2018-05-07T09:56:29.247Z,2778.75
2018-05-07T09:57:29.496Z,2756.25
2018-05-07T09:58:29.612Z,2694.38
2018-05-07T09:59:29.761Z,2604.38
2018-05-07T10:00:29.968Z,2514.38
2018-05-07T10:01:30.158Z,2385.00
2018-05-07T10:02:30.317Z,2244.38
2018-05-07T10:03:30.490Z,2109.38
2018-05-07T10:04:30.680Z,2002.50
2018-05-07T10:05:30.754Z,1940.63
2018-05-07T10:06:30.977Z,1901.25
2018-05-07T10:07:31.147Z,1918.13
2018-05-07T10:08:31.290Z,1991.25
2018-05-07T10:09:31.582Z,2103.75
2018-05-07T10:10:31.684Z,2250.00
2018-05-07T10:11:31.817Z,2407.50
2018-05-07T10:12:31.981Z,2570.63
2018-05-07T10:13:32.143Z,2733.75
2018-05-07T10:14:32.399Z,2874.38
2018-05-07T10:15:32.572Z,3020.63
2018-05-07T10:16:32.735Z,3105.00
2018-05-07T10:17:32.854Z,3121.88
2018-05-07T10:18:33.069Z,3105.00
2018-05-07T10:19:33.190Z,3082.50
2018-05-07T10:20:33.395Z,3060.00
2018-05-07T10:21:33.570Z,3043.13
2018-05-07T10:22:33.767Z,2992.50
2018-05-07T10:23:33.941Z,2891.25
2018-05-07T10:24:34.059Z,2739.38
2018-05-07T10:25:34.279Z,2598.75
2018-05-07T10:26:34.383Z,2497.50
2018-05-07T10:27:34.597Z,2396.25
2018-05-07T10:28:34.718Z,2261.25
2018-05-07T10:29:34.973Z,2165.63
2018-05-07T10:30:35.086Z,2160.00
2018-05-07T10:31:35.360Z,2216.25
2018-05-07T10:32:35.490Z,2328.75
2018-05-07T10:33:35.651Z,2480.63
2018-05-07T10:34:35.850Z,2660.63
2018-05-07T10:35:36.067Z,2846.25
2018-05-07T10:36:36.238Z,3015.00
2018-05-07T10:37:36.403Z,3195.00
2018-05-07T10:38:36.528Z,3330.00
2018-05-07T10:39:36.696Z,3431.25
2018-05-07T10:40:36.816Z,3521.25
2018-05-07T10:41:37.102Z,3532.50
2018-05-07T10:42:37.257Z,3555.00
2018-05-07T10:43:37.399Z,3549.38
2018-05-07T10:44:37.570Z,3566.25
2018-05-07T10:45:37.752Z,3577.50
2018-05-07T10:46:37.941Z,3577.50
2018-05-07T10:47:38.129Z,3566.25
2018-05-07T10:48:38.314Z,3543.75
2018-05-07T10:49:38.497Z,3555.00
2018-05-07T10:50:38.664Z,3583.13
2018-05-07T10:51:38.861Z,3566.25
2018-05-07T10:52:39.055Z,3571.88
2018-05-07T10:53:39.221Z,3526.88
2018-05-07T10:54:39.362Z,3521.25
2018-05-07T10:55:39.565Z,3481.88
2018-05-07T10:56:39.746Z,3521.25
2018-05-07T10:57:39.895Z,3532.50
2018-05-07T10:58:40.064Z,3521.25
2018-05-07T10:59:40.277Z,3566.25
2018-05-07T11:00:40.432Z,3616.88
2018-05-07T11:01:40.587Z,3684.38
2018-05-07T11:02:40.694Z,3735.00
2018-05-07T11:03:40.877Z,3796.88
2018-05-07T11:04:41.072Z,3825.00
2018-05-07T11:05:41.188Z,3825.00
2018-05-07T11:06:41.412Z,3836.25
2018-05-07T11:07:41.615Z,3853.13
2018-05-07T11:08:41.745Z,3858.75
2018-05-07T11:09:41.983Z,3847.50
2018-05-07T11:10:42.177Z,3825.00
2018-05-07T11:11:42.350Z,3825.00
2018-05-07T11:12:42.463Z,3847.50
2018-05-07T11:13:42.663Z,3864.38
2018-05-07T11:14:42.855Z,3875.63
2018-05-07T11:15:43.006Z,3881.25
2018-05-07T11:16:43.153Z,3875.63
2018-05-07T11:17:43.316Z,3864.38
2018-05-07T11:18:43.499Z,3847.50
2018-05-07T11:19:43.756Z,3864.38
2018-05-07T11:20:43.849Z,3870.00
2018-05-07T11:21:43.995Z,3858.75
2018-05-07T11:22:44.179Z,3825.00
2018-05-07T11:23:44.334Z,3830.63
2018-05-07T11:24:44.589Z,3858.75
2018-05-07T11:25:44.675Z,3909.38
2018-05-07T11:26:44.863Z,3943.13
2018-05-07T11:27:45.086Z,3960.00
2018-05-07T11:28:45.241Z,3965.63
2018-05-07T11:29:45.461Z,4005.00
2018-05-07T11:30:45.600Z,4038.75
2018-05-07T11:31:45.747Z,4033.13
2018-05-07T11:32:45.931Z,4010.63
2018-05-07T11:33:46.163Z,3982.50
2018-05-07T11:34:46.290Z,3943.13
2018-05-07T11:35:46.461Z,3960.00
2018-05-07T11:36:46.662Z,3999.38
2018-05-07T11:37:46.825Z,3971.25
2018-05-07T11:38:47.039Z,3926.25
2018-05-07T11:39:47.133Z,3937.50
2018-05-07T11:40:47.283Z,4005.00
2018-05-07T11:41:47.537Z,4050.00
2018-05-07T11:42:47.743Z,4089.38
2018-05-07T11:43:47.892Z,4061.25
2018-05-07T11:44:48.006Z,4005.00
2018-05-07T11:45:48.229Z,3965.63
2018-05-07T11:46:48.381Z,3898.13
2018-05-07T11:47:48.585Z,3825.00
2018-05-07T11:48:48.752Z,3723.75
2018-05-07T11:49:48.902Z,3605.63
2018-05-07T11:50:49.035Z,3442.50
2018-05-07T11:51:49.259Z,3341.25
2018-05-07T11:52:49.462Z,3240.00
2018-05-07T11:53:49.631Z,3144.38
2018-05-07T11:54:49.816Z,3009.38
2018-05-07T11:55:50.003Z,2880.00
2018-05-07T11:56:50.150Z,2773.13
2018-05-07T11:57:50.307Z,2750.63
2018-05-07T11:58:50.525Z,2840.63
2018-05-07T11:59:50.687Z,3009.38
2018-05-07T12:00:50.874Z,3223.13
2018-05-07T12:01:51.087Z,3436.88
2018-05-07T12:02:51.268Z,3667.50
2018-05-07T12:03:51.427Z,3920.63
2018-05-07T12:04:51.571Z,4100.63
2018-05-07T12:05:51.762Z,4235.63
2018-05-07T12:06:51.938Z,4291.88
2018-05-07T12:07:52.104Z,4275.00
2018-05-07T12:08:52.268Z,4263.75
2018-05-07T12:09:52.488Z,4263.75
2018-05-07T12:10:52.652Z,4269.38
2018-05-07T12:11:52.753Z,4258.13
2018-05-07T12:12:52.986Z,4252.50
2018-05-07T12:13:53.170Z,4258.13
2018-05-07T12:14:53.277Z,4303.13
2018-05-07T12:15:53.501Z,4258.13
2018-05-07T12:16:53.653Z,4263.75
2018-05-07T12:17:53.824Z,4263.75
2018-05-07T12:18:53.969Z,4291.88
2018-05-07T12:19:54.238Z,4297.50
2018-05-07T12:20:54.352Z,4314.38
2018-05-07T12:21:54.549Z,4325.63
2018-05-07T12:22:54.709Z,4286.25
2018-05-07T12:23:54.888Z,4286.25
2018-05-07T12:24:55.030Z,4168.13
2018-05-07T12:25:55.216Z,4061.25
2018-05-07T12:26:55.375Z,3976.88
2018-05-07T12:27:55.592Z,3886.88
2018-05-07T12:28:55.801Z,3825.00
2018-05-07T12:29:56.010Z,3780.00
2018-05-07T12:30:56.213Z,3836.25
2018-05-07T12:31:56.354Z,3971.25
2018-05-07T12:32:56.491Z,4123.13
2018-05-07T12:33:56.654Z,4235.63
2018-05-07T12:34:56.808Z,4308.75
2018-05-07T12:35:56.983Z,4376.25
2018-05-07T12:36:57.122Z,4488.75
2018-05-07T12:37:57.339Z,4533.75
2018-05-07T12:38:57.481Z,4466.25
2018-05-07T12:39:57.725Z,4449.38
2018-05-07T12:40:57.833Z,4443.75
2018-05-07T12:41:58.088Z,4466.25
2018-05-07T12:42:58.268Z,4460.63
2018-05-07T12:43:58.410Z,4432.50
2018-05-07T12:44:58.645Z,4370.63
2018-05-07T12:45:58.791Z,4263.75
2018-05-07T12:46:58.981Z,4196.25
2018-05-07T12:47:59.189Z,4162.50
2018-05-07T12:48:59.420Z,4123.13
2018-05-07T12:49:59.478Z,4089.38
2018-05-07T12:50:59.688Z,4095.00
2018-05-07T12:51:59.822Z,4156.88
2018-05-07T12:53:00.030Z,4263.75
2018-05-07T12:54:00.159Z,4359.38
2018-05-07T12:55:00.406Z,4410.00
2018-05-07T12:56:00.541Z,4432.50
2018-05-07T12:57:00.744Z,4438.13
2018-05-07T12:58:00.868Z,4381.88
2018-05-07T12:59:01.149Z,4325.63
2018-05-07T13:00:01.237Z,4185.00
2018-05-07T13:01:01.372Z,4033.13
2018-05-07T13:02:01.633Z,3847.50
2018-05-07T13:03:01.802Z,3701.25
2018-05-07T13:04:01.893Z,3611.25
2018-05-07T13:05:02.173Z,3611.25
2018-05-07T13:06:02.362Z,3650.63
2018-05-07T13:07:02.470Z,3735.00
2018-05-07T13:08:02.663Z,3841.88
2018-05-07T13:09:02.791Z,3976.88
2018-05-07T13:10:02.991Z,4066.88
2018-05-07T13:11:03.200Z,4179.38
2018-05-07T13:12:03.349Z,4275.00
2018-05-07T13:13:03.644Z,4342.50
2018-05-07T13:14:03.675Z,4353.75
2018-05-07T13:15:03.847Z,4201.88
2018-05-07T13:16:04.056Z,4140.00
2018-05-07T13:17:04.334Z,4078.13
2018-05-07T13:18:04.408Z,4016.25
2018-05-07T13:19:04.584Z,3999.38
2018-05-07T13:20:04.835Z,4005.00
2018-05-07T13:21:04.997Z,4123.13
2018-05-07T13:22:05.166Z,4185.00
2018-05-07T13:23:05.359Z,4258.13
2018-05-07T13:24:05.480Z,4336.88
2018-05-07T13:25:05.676Z,4381.88
2018-05-07T13:26:05.869Z,4432.50
2018-05-07T13:27:06.060Z,4466.25
2018-05-07T13:28:06.255Z,4483.13
2018-05-07T13:29:06.341Z,4500.00
2018-05-07T13:30:06.528Z,4528.13
2018-05-07T13:31:06.787Z,4539.38
2018-05-07T13:32:06.930Z,4528.13
2018-05-07T13:33:07.157Z,4528.13
2018-05-07T13:34:07.239Z,4545.00
2018-05-07T13:35:07.507Z,4539.38
2018-05-07T13:36:07.679Z,4494.38
2018-05-07T13:37:07.830Z,4483.13
2018-05-07T13:38:07.958Z,4483.13
2018-05-07T13:39:08.238Z,4488.75
2018-05-07T13:40:08.352Z,4483.13
2018-05-07T13:41:08.590Z,4449.38
2018-05-07T13:42:08.791Z,4410.00
2018-05-07T13:43:08.915Z,4438.13
2018-05-07T13:44:09.061Z,4466.25
2018-05-07T13:45:09.301Z,4483.13
2018-05-07T13:46:09.500Z,4471.88
2018-05-07T13:47:09.727Z,4443.75
2018-05-07T13:48:09.847Z,4477.50
2018-05-07T13:49:10.054Z,4466.25
2018-05-07T13:50:10.172Z,4443.75
2018-05-07T13:51:10.418Z,4477.50
2018-05-07T13:52:10.491Z,4438.13
2018-05-07T13:53:10.782Z,4381.88
2018-05-07T13:54:10.899Z,4370.63
2018-05-07T13:55:11.025Z,4387.50
2018-05-07T13:56:11.230Z,4415.63
2018-05-07T13:57:11.344Z,4398.75
2018-05-07T13:58:11.604Z,4393.13
2018-05-07T13:59:11.765Z,4365.00
2018-05-07T14:00:11.934Z,4336.88
2018-05-07T14:01:12.151Z,4275.00
2018-05-07T14:02:12.352Z,4241.25
2018-05-07T14:03:12.536Z,4213.13
2018-05-07T14:04:12.681Z,4168.13
2018-05-07T14:05:12.912Z,4117.50
2018-05-07T14:06:13.066Z,4089.38
2018-05-07T14:07:13.193Z,4111.88
2018-05-07T14:08:13.409Z,4117.50
2018-05-07T14:09:13.583Z,4156.88
2018-05-07T14:10:13.762Z,4196.25
2018-05-07T14:11:13.980Z,4258.13
2018-05-07T14:12:14.156Z,4320.00
2018-05-07T14:13:14.260Z,4342.50
2018-05-07T14:14:14.455Z,4325.63
2018-05-07T14:15:14.697Z,4275.00
2018-05-07T14:16:14.886Z,4252.50
2018-05-07T14:17:15.020Z,4218.75
2018-05-07T14:18:15.139Z,4190.63
2018-05-07T14:19:15.395Z,4168.13
2018-05-07T14:20:15.580Z,4151.25
2018-05-07T14:21:15.731Z,4117.50
2018-05-07T14:22:15.899Z,4089.38
2018-05-07T14:23:16.066Z,4072.50
2018-05-07T14:24:16.289Z,4066.88
2018-05-07T14:25:16.441Z,4089.38
2018-05-07T14:26:16.698Z,4089.38
2018-05-07T14:27:16.759Z,4083.75
2018-05-07T14:28:16.971Z,4050.00
2018-05-07T14:29:17.181Z,4038.75
2018-05-07T14:30:17.269Z,4027.50
2018-05-07T14:31:17.477Z,3982.50
2018-05-07T14:32:17.701Z,3920.63
2018-05-07T14:33:17.878Z,3875.63
2018-05-07T14:34:17.993Z,3870.00
2018-05-07T14:35:18.222Z,3808.13
2018-05-07T14:36:18.399Z,3791.25
2018-05-07T14:37:18.633Z,3774.38
2018-05-07T14:38:18.776Z,3780.00
2018-05-07T14:39:18.899Z,3808.13
2018-05-07T14:40:19.083Z,3853.13
2018-05-07T14:41:19.258Z,3903.75
2018-05-07T14:42:19.494Z,3943.13
2018-05-07T14:43:19.604Z,3909.38
2018-05-07T14:44:19.751Z,3875.63
2018-05-07T14:45:19.954Z,3847.50
2018-05-07T14:46:20.155Z,3858.75
2018-05-07T14:47:20.367Z,3836.25
2018-05-07T14:48:20.620Z,3841.88
2018-05-07T14:49:20.796Z,3830.63
2018-05-07T14:50:21.004Z,3825.00
2018-05-07T14:51:21.075Z,3808.13
2018-05-07T14:52:21.286Z,3796.88
2018-05-07T14:53:21.535Z,3780.00
2018-05-07T14:54:21.693Z,3746.25
2018-05-07T14:55:21.829Z,3740.63
2018-05-07T14:56:22.017Z,3718.13
2018-05-07T14:57:22.222Z,3712.50
2018-05-07T14:58:22.366Z,3695.63
2018-05-07T14:59:22.538Z,3678.75
2018-05-07T15:00:22.720Z,3678.75
2018-05-07T15:01:22.874Z,3667.50
2018-05-07T15:02:23.113Z,3639.38
2018-05-07T15:03:23.244Z,3611.25
2018-05-07T15:04:23.407Z,3583.13
2018-05-07T15:05:23.561Z,3538.13
2018-05-07T15:06:23.769Z,3498.75
2018-05-07T15:07:23.939Z,3453.75
2018-05-07T15:08:24.153Z,3436.88
2018-05-07T15:09:24.319Z,3403.13
2018-05-07T15:10:24.458Z,3414.38
2018-05-07T15:11:25.383Z,3403.13
2018-05-07T15:12:24.829Z,3408.75
2018-05-07T15:13:24.941Z,3425.63
2018-05-07T15:14:25.192Z,3436.88
2018-05-07T15:15:25.359Z,3448.13
2018-05-07T15:16:25.518Z,3453.75
2018-05-07T15:17:25.746Z,3453.75
2018-05-07T15:18:25.875Z,3431.25
2018-05-07T15:19:25.991Z,3420.00
2018-05-07T15:20:26.202Z,3397.50
2018-05-07T15:21:26.335Z,3375.00
2018-05-07T15:22:26.581Z,3341.25
2018-05-07T15:23:26.767Z,3318.75
2018-05-07T15:24:26.920Z,3290.63
2018-05-07T15:25:27.163Z,3256.88
2018-05-07T15:26:27.353Z,3234.38
2018-05-07T15:27:27.509Z,3217.50
2018-05-07T15:28:27.693Z,3189.38
2018-05-07T15:29:27.909Z,3172.50
2018-05-07T15:30:28.066Z,3155.63
2018-05-07T15:31:28.206Z,3138.75
2018-05-07T15:32:28.416Z,3133.13
2018-05-07T15:33:28.558Z,3099.38
2018-05-07T15:34:28.778Z,3071.25
2018-05-07T15:35:28.985Z,3071.25
2018-05-07T15:36:29.071Z,2992.50
2018-05-07T15:37:29.275Z,2964.38
2018-05-07T15:38:29.472Z,2936.25
2018-05-07T15:39:29.594Z,2919.38
2018-05-07T15:40:29.774Z,2913.75
2018-05-07T15:41:29.978Z,2919.38
2018-05-07T15:42:30.164Z,2925.00
2018-05-07T15:43:30.368Z,2925.00
2018-05-07T15:44:30.517Z,2908.13
2018-05-07T15:45:30.620Z,2851.88
2018-05-07T15:46:30.866Z,2818.13
2018-05-07T15:47:31.093Z,2790.00
2018-05-07T15:48:31.209Z,2767.50
2018-05-07T15:49:31.422Z,2745.00
2018-05-07T15:50:31.571Z,2716.88
2018-05-07T15:51:31.787Z,2716.88
2018-05-07T15:52:31.949Z,2694.38
2018-05-07T15:53:32.082Z,2655.00
2018-05-07T15:54:32.258Z,2638.13
2018-05-07T15:55:32.473Z,2638.13
2018-05-07T15:56:32.592Z,2632.50
2018-05-07T15:57:32.767Z,2643.75
2018-05-07T15:58:32.974Z,2649.38
2018-05-07T15:59:33.156Z,2655.00
2018-05-07T16:00:33.340Z,2643.75
2018-05-07T16:01:33.474Z,2626.88
2018-05-07T16:02:33.779Z,2598.75
2018-05-07T16:03:33.882Z,2576.25
2018-05-07T16:04:34.080Z,2553.75
2018-05-07T16:05:34.257Z,2503.13
2018-05-07T16:06:34.399Z,2469.38
2018-05-07T16:07:34.526Z,2458.13
2018-05-07T16:08:34.769Z,2356.88
2018-05-07T16:09:34.894Z,2210.63
2018-05-07T16:10:35.072Z,2160.00
2018-05-07T16:11:35.211Z,1800.00
2018-05-07T16:12:35.415Z,1923.75
2018-05-07T16:13:35.576Z,1794.38
2018-05-07T16:14:35.745Z,2053.13
2018-05-07T16:15:35.959Z,2221.88
2018-05-07T16:16:36.098Z,2210.63
2018-05-07T16:17:36.265Z,2199.38
2018-05-07T16:18:36.433Z,1991.25
2018-05-07T16:19:36.675Z,1383.75
2018-05-07T16:20:36.733Z,1153.13
2018-05-07T16:21:36.989Z,1310.63
2018-05-07T16:22:37.129Z,933.75
2018-05-07T16:23:37.301Z,511.88
2018-05-07T16:24:37.417Z,382.50
2018-05-07T16:25:37.653Z,450.00
2018-05-07T16:26:37.858Z,630.00
2018-05-07T16:27:37.994Z,1096.88
2018-05-07T16:28:38.206Z,1113.75
2018-05-07T16:29:38.348Z,646.88
2018-05-07T16:30:38.519Z,646.88
2018-05-07T16:31:38.674Z,675.00
2018-05-07T16:32:38.873Z,613.13
2018-05-07T16:33:39.055Z,500.63
2018-05-07T16:34:39.227Z,517.50
2018-05-07T16:35:39.354Z,343.13
2018-05-07T16:36:39.579Z,450.00
2018-05-07T16:37:39.653Z,646.88
2018-05-07T16:38:39.896Z,506.25
2018-05-07T16:39:40.072Z,601.88
2018-05-07T16:40:40.159Z,855.00
2018-05-07T16:41:40.362Z,995.63
2018-05-07T16:42:40.628Z,928.13
2018-05-07T16:43:40.752Z,534.38
2018-05-07T16:44:40.839Z,360.00